sensor_id;sensor_type;location;lat;lon;timestamp;P1;durP1;ratioP1;P2;durP2;ratioP2
70148;SDS011;57514;52.164;5.282;2023-04-24T00:01:46;2.25;;;1.38;;
70148;SDS011;57514;52.164;5.282;2023-04-24T00:04:13;2.38;;;1.70;;
70148;SDS011;57514;52.164;5.282;2023-04-24T00:06:43;1.30;;;1.20;;
70148;SDS011;57514;52.164;5.282;2023-04-24T00:09:10;1.30;;;1.13;;
70148;SDS011;57514;52.164;5.282;2023-04-24T00:11:37;3.40;;;1.50;;
70148;SDS011;57514;52.164;5.282;2023-04-24T00:14:04;1.40;;;1.33;;
70148;SDS011;57514;52.164;5.282;2023-04-24T00:16:32;2.97;;;1.80;;
70148;SDS011;57514;52.164;5.282;2023-04-24T00:18:59;2.80;;;2.08;;
70148;SDS011;57514;52.164;5.282;2023-04-24T00:21:27;5.07;;;1.77;;
70148;SDS011;57514;52.164;5.282;2023-04-24T00:23:54;4.43;;;1.98;;
70148;SDS011;57514;52.164;5.282;2023-04-24T00:26:21;3.40;;;1.90;;
70148;SDS011;57514;52.164;5.282;2023-04-24T00:28:49;3.90;;;1.42;;
70148;SDS011;57514;52.164;5.282;2023-04-24T00:31:16;0.90;;;0.90;;
70148;SDS011;57514;52.164;5.282;2023-04-24T00:33:43;1.20;;;1.00;;
70148;SDS011;57514;52.164;5.282;2023-04-24T00:36:11;3.85;;;1.60;;
70148;SDS011;57514;52.164;5.282;2023-04-24T00:38:38;2.67;;;1.20;;
70148;SDS011;57514;52.164;5.282;2023-04-24T00:41:05;1.65;;;1.13;;
70148;SDS011;57514;52.164;5.282;2023-04-24T00:43:33;1.55;;;1.13;;
70148;SDS011;57514;52.164;5.282;2023-04-24T00:46:00;3.22;;;1.60;;
70148;SDS011;57514;52.164;5.282;2023-04-24T00:48:28;2.03;;;1.33;;
70148;SDS011;57514;52.164;5.282;2023-04-24T00:50:55;2.67;;;1.38;;
70148;SDS011;57514;52.164;5.282;2023-04-24T00:53:23;2.28;;;1.60;;
70148;SDS011;57514;52.164;5.282;2023-04-24T00:55:50;1.95;;;1.52;;
70148;SDS011;57514;52.164;5.282;2023-04-24T00:58:18;1.55;;;1.42;;
70148;SDS011;57514;52.164;5.282;2023-04-24T01:00:45;2.95;;;1.42;;
70148;SDS011;57514;52.164;5.282;2023-04-24T01:03:13;1.65;;;1.23;;
70148;SDS011;57514;52.164;5.282;2023-04-24T01:05:40;3.17;;;1.55;;
70148;SDS011;57514;52.164;5.282;2023-04-24T01:08:08;2.13;;;1.13;;
70148;SDS011;57514;52.164;5.282;2023-04-24T01:10:36;3.28;;;1.35;;
70148;SDS011;57514;52.164;5.282;2023-04-24T01:13:03;2.17;;;1.60;;
70148;SDS011;57514;52.164;5.282;2023-04-24T01:15:31;2.10;;;1.33;;
70148;SDS011;57514;52.164;5.282;2023-04-24T01:17:58;4.00;;;1.88;;
70148;SDS011;57514;52.164;5.282;2023-04-24T01:20:25;3.45;;;1.80;;
70148;SDS011;57514;52.164;5.282;2023-04-24T01:22:54;2.63;;;1.15;;
70148;SDS011;57514;52.164;5.282;2023-04-24T01:25:23;3.47;;;1.70;;
70148;SDS011;57514;52.164;5.282;2023-04-24T01:27:51;2.42;;;1.30;;
70148;SDS011;57514;52.164;5.282;2023-04-24T01:30:18;5.28;;;2.33;;
70148;SDS011;57514;52.164;5.282;2023-04-24T01:32:46;2.45;;;1.45;;
70148;SDS011;57514;52.164;5.282;2023-04-24T01:35:13;5.00;;;2.40;;
70148;SDS011;57514;52.164;5.282;2023-04-24T01:37:40;6.28;;;2.63;;
70148;SDS011;57514;52.164;5.282;2023-04-24T01:40:08;3.25;;;2.00;;
70148;SDS011;57514;52.164;5.282;2023-04-24T01:42:35;6.13;;;2.60;;
70148;SDS011;57514;52.164;5.282;2023-04-24T01:45:03;5.65;;;2.78;;
70148;SDS011;57514;52.164;5.282;2023-04-24T01:47:31;7.95;;;3.35;;
70148;SDS011;57514;52.164;5.282;2023-04-24T01:49:59;4.82;;;2.38;;
70148;SDS011;57514;52.164;5.282;2023-04-24T01:52:26;5.95;;;2.80;;
70148;SDS011;57514;52.164;5.282;2023-04-24T01:54:55;8.20;;;3.78;;
70148;SDS011;57514;52.164;5.282;2023-04-24T01:57:22;6.10;;;2.67;;
70148;SDS011;57514;52.164;5.282;2023-04-24T01:59:49;6.65;;;3.75;;
70148;SDS011;57514;52.164;5.282;2023-04-24T02:02:17;8.95;;;3.40;;
70148;SDS011;57514;52.164;5.282;2023-04-24T02:04:44;7.03;;;3.50;;
70148;SDS011;57514;52.164;5.282;2023-04-24T02:07:11;4.90;;;2.35;;
70148;SDS011;57514;52.164;5.282;2023-04-24T02:09:39;7.97;;;3.63;;
70148;SDS011;57514;52.164;5.282;2023-04-24T02:12:06;9.05;;;4.63;;
70148;SDS011;57514;52.164;5.282;2023-04-24T02:14:33;9.45;;;3.63;;
70148;SDS011;57514;52.164;5.282;2023-04-24T02:17:02;10.52;;;4.68;;
70148;SDS011;57514;52.164;5.282;2023-04-24T02:19:29;8.23;;;4.18;;
70148;SDS011;57514;52.164;5.282;2023-04-24T02:21:57;11.07;;;5.00;;
70148;SDS011;57514;52.164;5.282;2023-04-24T02:24:24;6.80;;;3.47;;
70148;SDS011;57514;52.164;5.282;2023-04-24T02:26:51;8.55;;;3.70;;
70148;SDS011;57514;52.164;5.282;2023-04-24T02:29:18;5.97;;;2.95;;
70148;SDS011;57514;52.164;5.282;2023-04-24T02:31:48;8.45;;;3.88;;
70148;SDS011;57514;52.164;5.282;2023-04-24T02:34:15;8.35;;;3.50;;
70148;SDS011;57514;52.164;5.282;2023-04-24T02:36:42;7.07;;;3.22;;
70148;SDS011;57514;52.164;5.282;2023-04-24T02:39:10;3.97;;;1.77;;
70148;SDS011;57514;52.164;5.282;2023-04-24T02:41:38;4.72;;;2.38;;
70148;SDS011;57514;52.164;5.282;2023-04-24T03:05:44;3.10;;;1.70;;
70148;SDS011;57514;52.164;5.282;2023-04-24T03:08:11;3.00;;;2.25;;
70148;SDS011;57514;52.164;5.282;2023-04-24T03:10:41;2.67;;;1.65;;
70148;SDS011;57514;52.164;5.282;2023-04-24T03:13:08;4.28;;;2.17;;
70148;SDS011;57514;52.164;5.282;2023-04-24T03:15:35;4.65;;;2.30;;
70148;SDS011;57514;52.164;5.282;2023-04-24T03:18:03;3.33;;;1.88;;
70148;SDS011;57514;52.164;5.282;2023-04-24T03:20:30;2.80;;;1.80;;
70148;SDS011;57514;52.164;5.282;2023-04-24T03:22:57;4.63;;;1.90;;
70148;SDS011;57514;52.164;5.282;2023-04-24T03:25:25;4.82;;;2.33;;
70148;SDS011;57514;52.164;5.282;2023-04-24T03:27:53;4.80;;;2.33;;
70148;SDS011;57514;52.164;5.282;2023-04-24T03:30:30;3.97;;;2.17;;
70148;SDS011;57514;52.164;5.282;2023-04-24T03:32:59;4.85;;;2.10;;
70148;SDS011;57514;52.164;5.282;2023-04-24T03:35:29;6.63;;;1.92;;
70148;SDS011;57514;52.164;5.282;2023-04-24T03:38:00;7.00;;;2.83;;
70148;SDS011;57514;52.164;5.282;2023-04-24T03:41:03;5.97;;;2.20;;
70148;SDS011;57514;52.164;5.282;2023-04-24T03:43:38;6.93;;;2.58;;
70148;SDS011;57514;52.164;5.282;2023-04-24T03:46:05;4.40;;;2.10;;
70148;SDS011;57514;52.164;5.282;2023-04-24T03:48:39;6.45;;;2.42;;
70148;SDS011;57514;52.164;5.282;2023-04-24T03:51:07;2.97;;;1.75;;
70148;SDS011;57514;52.164;5.282;2023-04-24T03:53:37;3.55;;;1.85;;
70148;SDS011;57514;52.164;5.282;2023-04-24T03:56:04;3.72;;;1.83;;
70148;SDS011;57514;52.164;5.282;2023-04-24T03:58:32;3.20;;;1.80;;
70148;SDS011;57514;52.164;5.282;2023-04-24T04:00:59;5.63;;;2.08;;
70148;SDS011;57514;52.164;5.282;2023-04-24T04:03:45;4.03;;;2.13;;
70148;SDS011;57514;52.164;5.282;2023-04-24T04:06:15;4.63;;;1.90;;
70148;SDS011;57514;52.164;5.282;2023-04-24T04:08:42;3.25;;;1.83;;
70148;SDS011;57514;52.164;5.282;2023-04-24T04:11:10;2.83;;;1.63;;
70148;SDS011;57514;52.164;5.282;2023-04-24T04:13:37;2.35;;;1.63;;
70148;SDS011;57514;52.164;5.282;2023-04-24T04:16:04;3.90;;;1.73;;
70148;SDS011;57514;52.164;5.282;2023-04-24T04:18:31;3.83;;;2.25;;
70148;SDS011;57514;52.164;5.282;2023-04-24T04:21:00;4.35;;;1.83;;
70148;SDS011;57514;52.164;5.282;2023-04-24T04:23:27;4.80;;;2.17;;
70148;SDS011;57514;52.164;5.282;2023-04-24T04:26:04;4.03;;;2.17;;
70148;SDS011;57514;52.164;5.282;2023-04-24T04:28:46;4.18;;;2.15;;
70148;SDS011;57514;52.164;5.282;2023-04-24T04:31:15;5.03;;;2.30;;
70148;SDS011;57514;52.164;5.282;2023-04-24T04:33:42;5.47;;;2.35;;
70148;SDS011;57514;52.164;5.282;2023-04-24T04:36:10;5.95;;;2.58;;
70148;SDS011;57514;52.164;5.282;2023-04-24T04:38:43;7.22;;;2.50;;
70148;SDS011;57514;52.164;5.282;2023-04-24T04:41:21;5.78;;;2.42;;
70148;SDS011;57514;52.164;5.282;2023-04-24T04:43:49;9.55;;;3.17;;
70148;SDS011;57514;52.164;5.282;2023-04-24T04:46:17;7.93;;;2.70;;
70148;SDS011;57514;52.164;5.282;2023-04-24T04:48:57;6.07;;;2.60;;
70148;SDS011;57514;52.164;5.282;2023-04-24T04:51:24;7.88;;;3.28;;
70148;SDS011;57514;52.164;5.282;2023-04-24T04:53:51;8.50;;;3.03;;
70148;SDS011;57514;52.164;5.282;2023-04-24T04:56:18;7.55;;;3.38;;
70148;SDS011;57514;52.164;5.282;2023-04-24T04:58:46;10.80;;;3.08;;
70148;SDS011;57514;52.164;5.282;2023-04-24T05:01:15;8.82;;;3.20;;
70148;SDS011;57514;52.164;5.282;2023-04-24T05:03:45;8.27;;;3.35;;
70148;SDS011;57514;52.164;5.282;2023-04-24T05:06:15;8.85;;;3.85;;
70148;SDS011;57514;52.164;5.282;2023-04-24T05:08:44;9.55;;;4.03;;
70148;SDS011;57514;52.164;5.282;2023-04-24T05:11:22;8.38;;;3.28;;
70148;SDS011;57514;52.164;5.282;2023-04-24T05:13:50;9.77;;;3.90;;
70148;SDS011;57514;52.164;5.282;2023-04-24T05:16:26;8.80;;;3.67;;
70148;SDS011;57514;52.164;5.282;2023-04-24T05:18:54;9.05;;;3.75;;
70148;SDS011;57514;52.164;5.282;2023-04-24T05:21:27;9.77;;;4.25;;
70148;SDS011;57514;52.164;5.282;2023-04-24T05:23:55;9.73;;;3.67;;
70148;SDS011;57514;52.164;5.282;2023-04-24T05:26:45;10.52;;;3.58;;
70148;SDS011;57514;52.164;5.282;2023-04-24T05:29:15;8.75;;;3.45;;
70148;SDS011;57514;52.164;5.282;2023-04-24T05:31:42;10.25;;;3.75;;
70148;SDS011;57514;52.164;5.282;2023-04-24T05:34:10;8.57;;;3.35;;
70148;SDS011;57514;52.164;5.282;2023-04-24T05:36:40;7.78;;;2.85;;
70148;SDS011;57514;52.164;5.282;2023-04-24T05:39:08;7.93;;;2.70;;
70148;SDS011;57514;52.164;5.282;2023-04-24T05:41:36;7.30;;;2.38;;
70148;SDS011;57514;52.164;5.282;2023-04-24T05:44:03;4.43;;;2.00;;
70148;SDS011;57514;52.164;5.282;2023-04-24T05:46:30;5.93;;;2.17;;
70148;SDS011;57514;52.164;5.282;2023-04-24T05:48:57;7.07;;;2.25;;
70148;SDS011;57514;52.164;5.282;2023-04-24T05:51:24;6.30;;;2.30;;
70148;SDS011;57514;52.164;5.282;2023-04-24T05:53:52;4.60;;;1.90;;
70148;SDS011;57514;52.164;5.282;2023-04-24T05:56:20;4.88;;;1.77;;
70148;SDS011;57514;52.164;5.282;2023-04-24T05:58:49;3.10;;;1.77;;
70148;SDS011;57514;52.164;5.282;2023-04-24T06:01:16;3.78;;;2.10;;
70148;SDS011;57514;52.164;5.282;2023-04-24T06:03:49;2.88;;;1.80;;
70148;SDS011;57514;52.164;5.282;2023-04-24T06:06:16;2.05;;;1.40;;
70148;SDS011;57514;52.164;5.282;2023-04-24T06:08:43;3.30;;;1.80;;
70148;SDS011;57514;52.164;5.282;2023-04-24T06:11:11;3.58;;;1.42;;
70148;SDS011;57514;52.164;5.282;2023-04-24T06:13:39;2.05;;;1.23;;
70148;SDS011;57514;52.164;5.282;2023-04-24T06:16:29;4.07;;;1.90;;
70148;SDS011;57514;52.164;5.282;2023-04-24T06:19:04;3.47;;;1.80;;
70148;SDS011;57514;52.164;5.282;2023-04-24T06:21:31;1.60;;;1.45;;
70148;SDS011;57514;52.164;5.282;2023-04-24T06:23:58;6.10;;;2.33;;
70148;SDS011;57514;52.164;5.282;2023-04-24T06:26:26;7.00;;;2.95;;
70148;SDS011;57514;52.164;5.282;2023-04-24T06:28:53;8.85;;;3.80;;
70148;SDS011;57514;52.164;5.282;2023-04-24T06:31:20;11.77;;;4.97;;
70148;SDS011;57514;52.164;5.282;2023-04-24T06:33:48;15.18;;;6.63;;
70148;SDS011;57514;52.164;5.282;2023-04-24T06:36:15;16.77;;;6.15;;
70148;SDS011;57514;52.164;5.282;2023-04-24T06:38:43;18.35;;;8.35;;
70148;SDS011;57514;52.164;5.282;2023-04-24T06:41:11;19.73;;;8.00;;
70148;SDS011;57514;52.164;5.282;2023-04-24T06:43:39;17.63;;;7.38;;
70148;SDS011;57514;52.164;5.282;2023-04-24T06:46:06;19.30;;;8.20;;
70148;SDS011;57514;52.164;5.282;2023-04-24T06:48:33;18.80;;;9.02;;
70148;SDS011;57514;52.164;5.282;2023-04-24T06:51:00;23.00;;;9.00;;
70148;SDS011;57514;52.164;5.282;2023-04-24T06:53:28;18.30;;;7.80;;
70148;SDS011;57514;52.164;5.282;2023-04-24T06:55:55;18.95;;;9.10;;
70148;SDS011;57514;52.164;5.282;2023-04-24T06:58:23;18.98;;;8.63;;
70148;SDS011;57514;52.164;5.282;2023-04-24T07:00:51;15.80;;;7.65;;
70148;SDS011;57514;52.164;5.282;2023-04-24T07:03:18;20.55;;;8.93;;
70148;SDS011;57514;52.164;5.282;2023-04-24T07:05:46;17.38;;;8.80;;
70148;SDS011;57514;52.164;5.282;2023-04-24T07:08:13;18.58;;;8.50;;
70148;SDS011;57514;52.164;5.282;2023-04-24T07:10:43;21.83;;;8.85;;
70148;SDS011;57514;52.164;5.282;2023-04-24T07:13:11;20.58;;;8.02;;
70148;SDS011;57514;52.164;5.282;2023-04-24T07:15:38;18.77;;;8.98;;
70148;SDS011;57514;52.164;5.282;2023-04-24T07:18:07;18.08;;;8.02;;
70148;SDS011;57514;52.164;5.282;2023-04-24T07:20:34;14.48;;;6.15;;
70148;SDS011;57514;52.164;5.282;2023-04-24T07:23:02;17.80;;;6.47;;
70148;SDS011;57514;52.164;5.282;2023-04-24T07:25:31;19.15;;;8.70;;
70148;SDS011;57514;52.164;5.282;2023-04-24T07:27:59;15.95;;;8.30;;
70148;SDS011;57514;52.164;5.282;2023-04-24T07:30:26;18.33;;;7.45;;
70148;SDS011;57514;52.164;5.282;2023-04-24T07:32:55;18.95;;;7.25;;
70148;SDS011;57514;52.164;5.282;2023-04-24T07:35:22;15.80;;;7.25;;
70148;SDS011;57514;52.164;5.282;2023-04-24T07:37:52;15.55;;;6.70;;
70148;SDS011;57514;52.164;5.282;2023-04-24T07:40:20;16.65;;;7.65;;
70148;SDS011;57514;52.164;5.282;2023-04-24T07:42:47;16.88;;;7.75;;
70148;SDS011;57514;52.164;5.282;2023-04-24T07:45:14;18.67;;;8.05;;
70148;SDS011;57514;52.164;5.282;2023-04-24T07:47:42;16.85;;;7.38;;
70148;SDS011;57514;52.164;5.282;2023-04-24T07:50:12;17.10;;;7.32;;
70148;SDS011;57514;52.164;5.282;2023-04-24T07:52:39;15.73;;;7.63;;
70148;SDS011;57514;52.164;5.282;2023-04-24T07:55:06;18.38;;;6.80;;
70148;SDS011;57514;52.164;5.282;2023-04-24T07:57:33;18.60;;;7.75;;
70148;SDS011;57514;52.164;5.282;2023-04-24T08:00:02;19.65;;;7.20;;
70148;SDS011;57514;52.164;5.282;2023-04-24T08:02:36;18.08;;;7.07;;
70148;SDS011;57514;52.164;5.282;2023-04-24T08:05:04;15.88;;;7.35;;
70148;SDS011;57514;52.164;5.282;2023-04-24T08:07:32;16.17;;;6.60;;
70148;SDS011;57514;52.164;5.282;2023-04-24T08:09:59;14.93;;;6.40;;
70148;SDS011;57514;52.164;5.282;2023-04-24T08:12:27;13.48;;;4.80;;
70148;SDS011;57514;52.164;5.282;2023-04-24T08:14:55;12.02;;;4.97;;
70148;SDS011;57514;52.164;5.282;2023-04-24T08:17:22;17.85;;;5.03;;
70148;SDS011;57514;52.164;5.282;2023-04-24T08:19:49;17.20;;;3.55;;
70148;SDS011;57514;52.164;5.282;2023-04-24T08:22:17;13.38;;;3.72;;
70148;SDS011;57514;52.164;5.282;2023-04-24T08:24:44;10.85;;;3.13;;
70148;SDS011;57514;52.164;5.282;2023-04-24T08:27:11;15.50;;;4.18;;
70148;SDS011;57514;52.164;5.282;2023-04-24T08:29:38;14.23;;;4.00;;
70148;SDS011;57514;52.164;5.282;2023-04-24T08:32:06;15.82;;;3.97;;
70148;SDS011;57514;52.164;5.282;2023-04-24T08:34:33;9.63;;;3.03;;
70148;SDS011;57514;52.164;5.282;2023-04-24T08:37:00;14.27;;;3.90;;
70148;SDS011;57514;52.164;5.282;2023-04-24T08:39:27;13.13;;;3.08;;
70148;SDS011;57514;52.164;5.282;2023-04-24T08:41:55;10.88;;;3.17;;
70148;SDS011;57514;52.164;5.282;2023-04-24T08:44:22;15.35;;;3.30;;
70148;SDS011;57514;52.164;5.282;2023-04-24T08:46:49;14.82;;;3.33;;
70148;SDS011;57514;52.164;5.282;2023-04-24T08:49:17;9.02;;;3.08;;
70148;SDS011;57514;52.164;5.282;2023-04-24T08:51:45;15.85;;;3.45;;
70148;SDS011;57514;52.164;5.282;2023-04-24T08:54:13;10.18;;;2.85;;
70148;SDS011;57514;52.164;5.282;2023-04-24T08:56:41;11.80;;;3.05;;
70148;SDS011;57514;52.164;5.282;2023-04-24T08:59:11;13.63;;;3.10;;
70148;SDS011;57514;52.164;5.282;2023-04-24T09:01:38;7.90;;;2.50;;
70148;SDS011;57514;52.164;5.282;2023-04-24T09:04:07;11.73;;;2.95;;
70148;SDS011;57514;52.164;5.282;2023-04-24T09:06:37;12.45;;;3.05;;
70148;SDS011;57514;52.164;5.282;2023-04-24T09:09:04;11.05;;;1.98;;
70148;SDS011;57514;52.164;5.282;2023-04-24T09:11:32;9.80;;;2.97;;
70148;SDS011;57514;52.164;5.282;2023-04-24T09:13:59;11.45;;;2.35;;
70148;SDS011;57514;52.164;5.282;2023-04-24T09:16:27;9.50;;;3.03;;
70148;SDS011;57514;52.164;5.282;2023-04-24T09:18:55;12.38;;;3.50;;
70148;SDS011;57514;52.164;5.282;2023-04-24T09:21:23;7.72;;;2.75;;
70148;SDS011;57514;52.164;5.282;2023-04-24T09:24:00;9.10;;;2.80;;
70148;SDS011;57514;52.164;5.282;2023-04-24T09:26:29;9.43;;;3.75;;
70148;SDS011;57514;52.164;5.282;2023-04-24T09:28:58;9.95;;;2.28;;
70148;SDS011;57514;52.164;5.282;2023-04-24T09:31:26;11.82;;;3.03;;
70148;SDS011;57514;52.164;5.282;2023-04-24T09:36:34;13.43;;;2.70;;
70148;SDS011;57514;52.164;5.282;2023-04-24T09:39:11;12.48;;;3.28;;
70148;SDS011;57514;52.164;5.282;2023-04-24T09:41:45;8.18;;;2.65;;
70148;SDS011;57514;52.164;5.282;2023-04-24T09:44:14;11.45;;;3.17;;
70148;SDS011;57514;52.164;5.282;2023-04-24T09:46:42;10.07;;;3.42;;
70148;SDS011;57514;52.164;5.282;2023-04-24T09:49:13;11.82;;;2.50;;
70148;SDS011;57514;52.164;5.282;2023-04-24T09:51:42;9.07;;;2.20;;
70148;SDS011;57514;52.164;5.282;2023-04-24T09:54:16;9.57;;;2.88;;
70148;SDS011;57514;52.164;5.282;2023-04-24T09:56:44;13.65;;;2.78;;
70148;SDS011;57514;52.164;5.282;2023-04-24T09:59:13;9.98;;;2.28;;
70148;SDS011;57514;52.164;5.282;2023-04-24T10:01:40;11.73;;;2.88;;
70148;SDS011;57514;52.164;5.282;2023-04-24T10:04:15;10.68;;;2.35;;
70148;SDS011;57514;52.164;5.282;2023-04-24T10:06:43;5.45;;;2.17;;
70148;SDS011;57514;52.164;5.282;2023-04-24T10:09:11;7.82;;;2.65;;
70148;SDS011;57514;52.164;5.282;2023-04-24T10:11:41;7.25;;;1.85;;
70148;SDS011;57514;52.164;5.282;2023-04-24T10:14:10;8.60;;;2.88;;
70148;SDS011;57514;52.164;5.282;2023-04-24T10:16:38;4.93;;;2.15;;
70148;SDS011;57514;52.164;5.282;2023-04-24T10:19:06;8.48;;;2.08;;
70148;SDS011;57514;52.164;5.282;2023-04-24T10:21:34;4.97;;;1.70;;
70148;SDS011;57514;52.164;5.282;2023-04-24T10:26:33;4.38;;;1.52;;
70148;SDS011;57514;52.164;5.282;2023-04-24T10:29:01;4.03;;;1.73;;
70148;SDS011;57514;52.164;5.282;2023-04-24T10:31:30;4.93;;;1.70;;
70148;SDS011;57514;52.164;5.282;2023-04-24T10:36:26;4.15;;;1.50;;
70148;SDS011;57514;52.164;5.282;2023-04-24T10:38:54;9.68;;;1.88;;
70148;SDS011;57514;52.164;5.282;2023-04-24T10:41:22;4.68;;;1.23;;
70148;SDS011;57514;52.164;5.282;2023-04-24T10:44:05;6.07;;;1.58;;
70148;SDS011;57514;52.164;5.282;2023-04-24T10:46:32;2.83;;;1.30;;
70148;SDS011;57514;52.164;5.282;2023-04-24T10:48:59;6.05;;;2.00;;
70148;SDS011;57514;52.164;5.282;2023-04-24T10:51:50;6.85;;;1.80;;
70148;SDS011;57514;52.164;5.282;2023-04-24T10:56:49;3.28;;;1.42;;
70148;SDS011;57514;52.164;5.282;2023-04-24T10:59:27;4.47;;;1.55;;
70148;SDS011;57514;52.164;5.282;2023-04-24T11:01:54;4.80;;;1.70;;
70148;SDS011;57514;52.164;5.282;2023-04-24T11:04:33;9.75;;;1.77;;
70148;SDS011;57514;52.164;5.282;2023-04-24T11:07:04;4.57;;;1.55;;
70148;SDS011;57514;52.164;5.282;2023-04-24T11:09:32;4.32;;;1.65;;
70148;SDS011;57514;52.164;5.282;2023-04-24T11:12:05;5.10;;;1.70;;
70148;SDS011;57514;52.164;5.282;2023-04-24T11:17:32;7.97;;;2.53;;
70148;SDS011;57514;52.164;5.282;2023-04-24T11:20:03;7.13;;;2.05;;
70148;SDS011;57514;52.164;5.282;2023-04-24T11:22:55;4.10;;;1.70;;
70148;SDS011;57514;52.164;5.282;2023-04-24T11:25:24;6.25;;;1.70;;
70148;SDS011;57514;52.164;5.282;2023-04-24T11:27:52;3.33;;;1.45;;
70148;SDS011;57514;52.164;5.282;2023-04-24T11:30:29;3.08;;;1.30;;
70148;SDS011;57514;52.164;5.282;2023-04-24T11:33:03;5.60;;;1.55;;
70148;SDS011;57514;52.164;5.282;2023-04-24T11:35:34;5.20;;;1.77;;
70148;SDS011;57514;52.164;5.282;2023-04-24T11:38:05;2.55;;;1.38;;
70148;SDS011;57514;52.164;5.282;2023-04-24T11:40:49;1.83;;;1.30;;
70148;SDS011;57514;52.164;5.282;2023-04-24T11:43:16;2.20;;;1.15;;
70148;SDS011;57514;52.164;5.282;2023-04-24T11:45:48;2.70;;;1.35;;
70148;SDS011;57514;52.164;5.282;2023-04-24T11:48:19;6.22;;;1.52;;
70148;SDS011;57514;52.164;5.282;2023-04-24T11:50:49;5.50;;;1.50;;
70148;SDS011;57514;52.164;5.282;2023-04-24T11:53:18;3.45;;;1.30;;
70148;SDS011;57514;52.164;5.282;2023-04-24T11:55:47;2.63;;;1.33;;
70148;SDS011;57514;52.164;5.282;2023-04-24T11:58:14;3.33;;;1.20;;
70148;SDS011;57514;52.164;5.282;2023-04-24T12:00:41;2.67;;;1.20;;
70148;SDS011;57514;52.164;5.282;2023-04-24T12:03:09;4.65;;;1.33;;
70148;SDS011;57514;52.164;5.282;2023-04-24T12:05:38;6.78;;;1.65;;
70148;SDS011;57514;52.164;5.282;2023-04-24T12:08:05;10.10;;;1.52;;
70148;SDS011;57514;52.164;5.282;2023-04-24T12:10:33;2.05;;;1.35;;
70148;SDS011;57514;52.164;5.282;2023-04-24T12:13:01;7.80;;;1.70;;
70148;SDS011;57514;52.164;5.282;2023-04-24T12:15:29;6.03;;;1.20;;
70148;SDS011;57514;52.164;5.282;2023-04-24T12:17:57;6.10;;;1.60;;
70148;SDS011;57514;52.164;5.282;2023-04-24T12:20:26;7.55;;;1.60;;
70148;SDS011;57514;52.164;5.282;2023-04-24T12:22:54;6.75;;;1.80;;
70148;SDS011;57514;52.164;5.282;2023-04-24T12:25:22;4.72;;;1.80;;
70148;SDS011;57514;52.164;5.282;2023-04-24T12:27:54;5.38;;;1.90;;
70148;SDS011;57514;52.164;5.282;2023-04-24T12:30:28;6.78;;;2.60;;
70148;SDS011;57514;52.164;5.282;2023-04-24T12:32:59;5.35;;;1.85;;
70148;SDS011;57514;52.164;5.282;2023-04-24T12:35:27;5.68;;;1.90;;
70148;SDS011;57514;52.164;5.282;2023-04-24T12:37:55;4.28;;;1.73;;
70148;SDS011;57514;52.164;5.282;2023-04-24T12:40:24;3.33;;;1.60;;
70148;SDS011;57514;52.164;5.282;2023-04-24T12:42:52;6.93;;;2.30;;
70148;SDS011;57514;52.164;5.282;2023-04-24T12:45:22;11.40;;;2.13;;
70148;SDS011;57514;52.164;5.282;2023-04-24T12:47:51;11.23;;;2.63;;
70148;SDS011;57514;52.164;5.282;2023-04-24T12:50:18;5.03;;;1.83;;
70148;SDS011;57514;52.164;5.282;2023-04-24T12:52:46;7.28;;;2.50;;
70148;SDS011;57514;52.164;5.282;2023-04-24T12:55:13;8.82;;;2.45;;
70148;SDS011;57514;52.164;5.282;2023-04-24T12:57:40;6.43;;;2.22;;
70148;SDS011;57514;52.164;5.282;2023-04-24T13:00:08;9.63;;;2.50;;
70148;SDS011;57514;52.164;5.282;2023-04-24T13:02:36;9.52;;;2.63;;
70148;SDS011;57514;52.164;5.282;2023-04-24T13:05:03;12.45;;;3.33;;
70148;SDS011;57514;52.164;5.282;2023-04-24T13:07:31;9.88;;;3.72;;
70148;SDS011;57514;52.164;5.282;2023-04-24T13:09:58;12.98;;;2.40;;
70148;SDS011;57514;52.164;5.282;2023-04-24T13:12:26;7.55;;;2.38;;
70148;SDS011;57514;52.164;5.282;2023-04-24T13:14:53;8.57;;;2.38;;
70148;SDS011;57514;52.164;5.282;2023-04-24T13:17:22;9.70;;;2.67;;
70148;SDS011;57514;52.164;5.282;2023-04-24T13:19:49;8.35;;;2.92;;
70148;SDS011;57514;52.164;5.282;2023-04-24T13:22:17;9.32;;;2.92;;
70148;SDS011;57514;52.164;5.282;2023-04-24T13:24:45;10.45;;;2.90;;
70148;SDS011;57514;52.164;5.282;2023-04-24T13:27:15;8.80;;;2.60;;
70148;SDS011;57514;52.164;5.282;2023-04-24T13:29:42;11.43;;;2.80;;
70148;SDS011;57514;52.164;5.282;2023-04-24T13:32:10;8.98;;;2.95;;
70148;SDS011;57514;52.164;5.282;2023-04-24T13:34:37;8.70;;;2.60;;
70148;SDS011;57514;52.164;5.282;2023-04-24T13:37:04;11.93;;;2.55;;
70148;SDS011;57514;52.164;5.282;2023-04-24T13:39:34;6.63;;;2.38;;
70148;SDS011;57514;52.164;5.282;2023-04-24T13:42:02;8.52;;;2.38;;
70148;SDS011;57514;52.164;5.282;2023-04-24T13:44:30;9.77;;;2.65;;
70148;SDS011;57514;52.164;5.282;2023-04-24T13:46:58;9.85;;;2.80;;
70148;SDS011;57514;52.164;5.282;2023-04-24T13:49:28;8.95;;;3.40;;
70148;SDS011;57514;52.164;5.282;2023-04-24T13:51:56;10.25;;;2.83;;
70148;SDS011;57514;52.164;5.282;2023-04-24T13:54:23;13.05;;;3.35;;
70148;SDS011;57514;52.164;5.282;2023-04-24T13:56:52;15.02;;;2.92;;
70148;SDS011;57514;52.164;5.282;2023-04-24T13:59:20;11.30;;;3.45;;
70148;SDS011;57514;52.164;5.282;2023-04-24T14:01:48;8.27;;;2.47;;
70148;SDS011;57514;52.164;5.282;2023-04-24T14:04:18;9.10;;;2.88;;
70148;SDS011;57514;52.164;5.282;2023-04-24T14:06:45;10.05;;;2.70;;
70148;SDS011;57514;52.164;5.282;2023-04-24T14:09:12;15.20;;;3.08;;
70148;SDS011;57514;52.164;5.282;2023-04-24T14:11:40;9.57;;;2.28;;
70148;SDS011;57514;52.164;5.282;2023-04-24T14:14:07;10.00;;;2.95;;
70148;SDS011;57514;52.164;5.282;2023-04-24T14:16:34;8.95;;;2.75;;
70148;SDS011;57514;52.164;5.282;2023-04-24T14:19:02;10.55;;;2.88;;
70148;SDS011;57514;52.164;5.282;2023-04-24T14:21:29;12.00;;;3.53;;
70148;SDS011;57514;52.164;5.282;2023-04-24T14:23:56;9.45;;;3.00;;
70148;SDS011;57514;52.164;5.282;2023-04-24T14:26:24;11.95;;;3.20;;
70148;SDS011;57514;52.164;5.282;2023-04-24T14:28:51;5.43;;;2.72;;
70148;SDS011;57514;52.164;5.282;2023-04-24T14:31:29;6.28;;;2.25;;
70148;SDS011;57514;52.164;5.282;2023-04-24T14:33:56;14.60;;;3.58;;
70148;SDS011;57514;52.164;5.282;2023-04-24T14:36:23;14.18;;;3.78;;
70148;SDS011;57514;52.164;5.282;2023-04-24T14:38:51;11.27;;;2.85;;
70148;SDS011;57514;52.164;5.282;2023-04-24T14:41:18;10.27;;;3.03;;
70148;SDS011;57514;52.164;5.282;2023-04-24T14:43:45;11.07;;;3.92;;
70148;SDS011;57514;52.164;5.282;2023-04-24T14:46:13;12.80;;;3.40;;
70148;SDS011;57514;52.164;5.282;2023-04-24T14:48:40;10.18;;;3.45;;
70148;SDS011;57514;52.164;5.282;2023-04-24T14:51:07;11.90;;;3.92;;
70148;SDS011;57514;52.164;5.282;2023-04-24T14:53:38;12.20;;;3.47;;
70148;SDS011;57514;52.164;5.282;2023-04-24T14:56:06;10.77;;;2.72;;
70148;SDS011;57514;52.164;5.282;2023-04-24T14:58:33;10.60;;;3.03;;
70148;SDS011;57514;52.164;5.282;2023-04-24T15:01:01;15.60;;;3.72;;
70148;SDS011;57514;52.164;5.282;2023-04-24T15:03:29;11.18;;;3.25;;
70148;SDS011;57514;52.164;5.282;2023-04-24T15:05:57;11.90;;;3.50;;
70148;SDS011;57514;52.164;5.282;2023-04-24T15:08:24;9.02;;;2.17;;
70148;SDS011;57514;52.164;5.282;2023-04-24T15:10:52;13.48;;;3.72;;
70148;SDS011;57514;52.164;5.282;2023-04-24T15:13:19;8.90;;;2.92;;
70148;SDS011;57514;52.164;5.282;2023-04-24T15:15:46;10.40;;;3.25;;
70148;SDS011;57514;52.164;5.282;2023-04-24T15:20:44;10.10;;;3.42;;
70148;SDS011;57514;52.164;5.282;2023-04-24T15:23:11;9.65;;;3.00;;
70148;SDS011;57514;52.164;5.282;2023-04-24T15:25:39;8.25;;;2.72;;
70148;SDS011;57514;52.164;5.282;2023-04-24T15:28:06;12.88;;;3.25;;
70148;SDS011;57514;52.164;5.282;2023-04-24T15:30:36;10.27;;;3.45;;